Latest Weather Observations for Fowlers Gap

IDN60801

Issued at 5:02 pm EST Saturday 24 June 2017 (issued every 30 minutes, with the page automatically refreshed every 10 minutes)

About weather observations | Map of weather stations | Latest weather observations for NSW | Other Formats
Station Details ID: 046128 Name: FOWLERS GAP AWS Lat: -31.09 Lon: 141.70 Height: 181.0 m
Data from the previous 72 hours. | See also: Recent months at Fowlers Gap
Date/Time
EST
Temp
°C
App
Temp
°C
Dew
Point
°C
Rel
Hum
%
Delta-T
°C
Wind Press
QNH
hPa
Press
MSL
hPa
Rain since
9am
mm
Dir  Spd
km/h
Gust
km/h
Spd
kts
Gust
kts
24/05:00pm 18.5 16.4 5.7 43 6.3 E 6 7 3 4 1017.7 1017.8 0.0
24/04:30pm 18.8 16.4 5.3 41 6.6 ENE 7 7 4 4 1017.7 1017.8 0.0
24/04:00pm 19.1 16.9 5.2 40 6.8 ENE 6 9 3 5 1017.8 1017.9 0.0
24/03:30pm 19.4 17.1 4.7 38 7.2 ENE 6 11 3 6 1017.7 1017.8 0.0
24/03:00pm 19.5 17.2 4.8 38 7.2 NE 6 9 3 5 1017.7 1017.8 0.0
24/02:30pm 19.4 16.5 4.7 38 7.2 NNE 9 11 5 6 1017.9 1018.0 0.0
24/02:00pm 19.5 16.6 4.8 38 7.2 NE 9 15 5 8 1018.0 1018.1 0.0
24/01:30pm 19.6 16.3 4.5 37 7.3 ENE 11 15 6 8 1018.1 1018.2 0.0
24/01:00pm 20.0 16.5 5.3 38 7.3 ENE 13 17 7 9 1018.3 1018.4 0.0
24/12:30pm 18.9 15.7 5.0 40 6.8 E 11 17 6 9 1019.0 1019.2 0.0
24/12:00pm 18.2 14.7 5.4 43 6.3 E 13 19 7 10 1019.4 1019.6 0.0
24/11:30am 18.0 13.6 4.9 42 6.3 SE 17 20 9 11 1019.8 1020.0 0.0
24/11:00am 16.9 13.2 4.3 43 6.0 E 13 19 7 10 1020.2 1020.4 0.0
24/10:30am 15.7 12.3 3.8 45 5.5 ENE 11 13 6 7 1020.3 1020.5 0.0
24/10:00am 15.4 12.6 3.2 44 5.6 NE 7 9 4 5 1020.4 1020.6 0.0
24/09:30am 15.0 13.5 3.2 45 5.4 CALM 0 0 0 0 1020.5 1020.7 0.0
24/09:00am 13.0 11.5 2.8 50 4.5 CALM 0 0 0 0 1020.3 1020.5 0.0
24/08:30am 12.2 10.7 2.9 53 4.1 CALM 0 6 0 3 1020.1 1020.3 0.0
24/08:00am 10.1 8.4 1.7 56 3.5 CALM 0 0 0 0 1019.7 1019.9 0.0
24/07:30am 9.9 7.1 2.0 58 3.4 WSW 6 7 3 4 1019.6 1019.8 0.0
24/07:00am 8.9 7.1 1.3 59 3.1 CALM 0 6 0 3 1019.5 1019.7 0.0
24/06:30am 9.0 6.9 1.4 59 3.2 WNW 2 6 1 3 1019.0 1019.2 0.0
24/06:00am 9.5 7.8 1.9 59 3.2 CALM 0 6 0 3 1018.3 1018.4 0.0
24/05:30am 10.1 6.0 2.0 57 3.4 WSW 13 17 7 9 1018.5 1018.6 0.0
24/05:00am 10.7 7.3 2.0 55 3.7 WSW 9 13 5 7 1018.4 1018.5 0.0
24/04:30am 9.5 7.4 1.4 57 3.4 SW 2 7 1 4 1018.3 1018.4 0.0
24/04:00am 10.0 7.6 1.9 57 3.4 WSW 4 7 2 4 1018.2 1018.3 0.0
24/03:30am 10.1 7.1 1.7 56 3.6 SW 7 11 4 6 1018.1 1018.2 0.0
24/03:00am 11.5 8.1 2.0 52 4.1 W 9 9 5 5 1018.1 1018.2 0.0
24/02:30am 10.8 7.4 1.9 54 3.8 WNW 9 9 5 5 1018.2 1018.3 0.0
24/02:00am 10.7 7.7 1.8 54 3.8 W 7 11 4 6 1018.2 1018.3 0.0
24/01:30am 11.6 8.9 2.4 53 4.0 WNW 6 7 3 4 1018.3 1018.4 0.0
24/01:00am 11.1 9.5 2.2 54 3.8 CALM 0 0 0 0 1018.6 1018.7 0.0
24/12:30am 10.8 9.1 1.9 54 3.8 CALM 0 0 0 0 1018.8 1018.9 0.0
24/12:00am 11.3 9.6 2.1 53 4.0 CALM 0 0 0 0 1018.8 1018.9 0.0
 
Date/Time
EST
Temp
°C
App
Temp
°C
Dew
Point
°C
Rel
Hum
%
Delta-T
°C
Wind Press
QNH
hPa
Press
MSL
hPa
Rain since
9am
mm
Dir  Spd
km/h
Gust
km/h
Spd
kts
Gust
kts
23/11:30pm 12.2 10.5 2.1 50 4.4 CALM 0 0 0 0 1019.1 1019.3 0.0
23/11:00pm 12.5 10.9 2.4 50 4.4 CALM 0 0 0 0 1019.3 1019.5 0.0
23/10:30pm 12.5 10.6 2.7 51 4.3 WNW 2 11 1 6 1019.4 1019.6 0.0
23/10:00pm 12.0 10.4 2.2 51 4.3 CALM 0 0 0 0 1019.5 1019.7 0.0
23/09:30pm 12.5 10.8 2.1 49 4.5 CALM 0 0 0 0 1019.4 1019.6 0.0
23/09:00pm 12.5 10.8 2.1 49 4.5 CALM 0 0 0 0 1019.5 1019.7 0.0
23/08:30pm 12.6 10.9 1.9 48 4.7 CALM 0 0 0 0 1019.5 1019.7 0.0
23/08:00pm 12.9 11.3 2.2 48 4.7 CALM 0 0 0 0 1019.5 1019.7 0.0
23/07:30pm 13.6 12.0 2.2 46 5.0 CALM 0 0 0 0 1019.4 1019.6 0.0
23/07:00pm 14.2 12.5 2.1 44 5.3 CALM 0 0 0 0 1019.1 1019.3 0.0
23/06:30pm 15.6 13.9 2.1 40 6.1 CALM 0 0 0 0 1019.0 1019.2 0.0
23/06:00pm 16.7 13.3 2.0 37 6.6 WNW 9 9 5 5 1018.7 1018.8 0.0
23/05:30pm 17.9 13.8 2.2 35 7.2 W 13 13 7 7 1018.8 1018.9 0.0
23/05:00pm 19.1 14.6 2.0 32 7.9 W 15 17 8 9 1018.7 1018.8 0.0
23/04:30pm 19.7 15.6 2.1 31 8.2 WNW 13 17 7 9 1018.8 1018.9 0.0
23/04:00pm 19.5 15.4 2.4 32 7.9 WNW 13 17 7 9 1018.9 1019.1 0.0
23/03:30pm 19.5 15.0 2.4 32 8.0 WNW 15 20 8 11 1019.0 1019.2 0.0
23/03:00pm 19.8 15.3 2.2 31 8.2 WNW 15 20 8 11 1019.1 1019.3 0.0
23/02:30pm 19.6 15.6 2.9 33 7.9 NW 13 20 7 11 1019.1 1019.3 0.0
23/02:00pm 18.9 14.9 3.1 35 7.4 W 13 19 7 10 1019.3 1019.5 0.0
23/01:30pm 19.0 14.8 3.6 36 7.3 WNW 15 20 8 11 1019.9 1020.1 0.0
23/01:00pm 18.3 14.0 3.0 36 7.1 WNW 15 20 8 11 1020.1 1020.3 0.0
23/12:30pm 17.9 14.0 3.4 38 6.8 NW 13 17 7 9 1020.6 1020.8 0.0
23/12:00pm 17.3 13.1 3.6 40 6.4 NW 15 20 8 11 1021.0 1021.1 0.0
23/11:30am 16.5 13.7 3.2 41 6.1 NW 7 13 4 7 1021.6 1021.7 0.0
23/11:00am 15.0 13.5 2.9 44 5.5 CALM 0 4 0 2 1022.1 1022.2 0.0
23/10:30am 12.2 10.5 2.1 50 4.4 CALM 0 0 0 0 1022.1 1022.2 0.0
23/10:00am 10.1 8.3 1.5 55 3.6 CALM 0 0 0 0 1022.4 1022.5 0.0
23/09:30am 8.8 7.0 1.0 58 3.2 CALM 0 0 0 0 1021.9 1022.0 0.0
23/09:00am 7.8 5.9 0.5 60 2.9 CALM 0 0 0 0 1021.5 1021.6 0.0
23/08:30am 7.0 5.0 0.2 62 2.7 CALM 0 0 0 0 1021.4 1021.5 0.0
23/08:00am 6.5 4.5 0.0 63 2.5 CALM 0 0 0 0 1021.3 1021.4 0.0
23/07:30am 6.1 4.1 -0.2 64 2.4 CALM 0 0 0 0 1021.4 1021.5 0.0
23/07:00am 6.2 3.1 -0.1 64 2.4 N 6 7 3 4 1021.0 1021.1 0.0
23/06:30am 5.7 3.6 -0.6 64 2.4 CALM 0 0 0 0 1021.0 1021.1 0.0
23/06:00am 5.9 3.5 -0.4 64 2.4 WSW 2 6 1 3 1020.7 1020.9 0.0
23/05:30am 5.4 3.0 -0.4 66 2.2 SW 2 9 1 5 1020.7 1020.9 0.0
23/05:00am 5.1 3.0 -0.7 66 2.2 CALM 0 0 0 0 1020.6 1020.8 0.0
23/04:30am 5.1 1.9 -0.5 67 2.1 SW 6 9 3 5 1020.7 1020.9 0.0
23/04:00am 5.1 3.0 -0.7 66 2.2 CALM 0 0 0 0 1021.1 1021.2 0.0
23/03:30am 5.6 3.5 -0.7 64 2.4 CALM 0 0 0 0 1020.9 1021.0 0.0
23/03:00am 6.5 3.2 0.0 63 2.5 WSW 7 9 4 5 1021.5 1021.6 0.0
23/02:30am 6.4 4.4 -0.1 63 2.5 CALM 0 0 0 0 1021.3 1021.4 0.0
23/02:00am 6.5 4.4 -0.5 61 2.7 CALM 0 0 0 0 1021.2 1021.3 0.0
23/01:30am 7.3 4.6 0.3 61 2.8 SW 4 9 2 5 1021.6 1021.7 0.0
23/01:00am 8.1 6.2 0.3 58 3.1 CALM 0 0 0 0 1021.7 1021.8 0.0
23/12:30am 8.6 6.7 0.3 56 3.3 CALM 0 0 0 0 1022.4 1022.5 0.0
23/12:00am 9.1 6.1 0.8 56 3.4 SW 6 7 3 4 1022.5 1022.6 0.0
 
Date/Time
EST
Temp
°C
App
Temp
°C
Dew
Point
°C
Rel
Hum
%
Delta-T
°C
Wind Press
QNH
hPa
Press
MSL
hPa
Rain since
9am
mm
Dir  Spd
km/h
Gust
km/h
Spd
kts
Gust
kts
22/11:30pm 10.6 8.9 1.9 55 3.7 CALM 0 0 0 0 1022.8 1022.9 0.0
22/11:00pm 9.6 6.4 1.0 55 3.5 ENE 7 9 4 5 1022.6 1022.7 0.0
22/10:30pm 10.1 7.2 1.7 56 3.6 ENE 6 7 3 4 1022.8 1022.9 0.0
22/10:00pm 8.9 5.8 1.1 58 3.2 ENE 7 9 4 5 1022.7 1022.8 0.0
22/09:30pm 9.3 7.0 0.7 55 3.5 NE 2 9 1 5 1022.7 1022.8 0.0
22/09:00pm 9.8 8.0 0.9 54 3.7 CALM 0 0 0 0 1023.3 1023.4 0.0
22/08:30pm 9.9 7.7 0.8 53 3.8 ENE 2 7 1 4 1022.9 1023.0 0.0
22/08:00pm 10.9 7.9 0.9 50 4.2 S 6 7 3 4 1023.3 1023.4 0.0
22/07:30pm 11.2 9.4 1.2 50 4.2 CALM 0 0 0 0 1022.8 1022.9 0.0
22/07:00pm 11.3 9.4 0.7 48 4.4 CALM 0 0 0 0 1023.0 1023.1 0.0
22/06:30pm 12.6 9.5 1.3 46 4.8 SE 7 9 4 5 1022.6 1022.7 0.0
22/06:00pm 14.8 11.9 1.3 40 5.9 SE 6 7 3 4 1022.5 1022.6 0.0
22/05:30pm 17.1 14.2 1.5 35 7.0 E 6 7 3 4 1022.6 1022.7 0.0
22/05:00pm 18.3 15.3 1.8 33 7.5 NNE 7 11 4 6 1022.6 1022.7 0.0
22/04:30pm 18.8 15.8 1.8 32 7.8 NNE 7 13 4 7 1022.6 1022.7 0.0
22/04:00pm 18.8 15.1 2.2 33 7.6 NE 11 15 6 8 1022.6 1022.7 0.0
22/03:30pm 19.3 16.3 2.2 32 7.9 NNW 7 11 4 6 1022.9 1023.0 0.0
22/03:00pm 18.1 15.2 2.4 35 7.2 NE 7 13 4 7 1023.1 1023.2 0.0
22/02:30pm 18.1 15.1 2.0 34 7.4 NE 7 13 4 7 1023.3 1023.4 0.0
22/02:00pm 17.5 13.7 1.9 35 7.0 E 11 13 6 7 1023.7 1023.9 0.0
22/01:30pm 16.7 13.0 2.3 38 6.5 ENE 11 15 6 8 1024.0 1024.2 0.0
22/01:00pm 16.8 13.0 2.0 37 6.7 ENE 11 19 6 10 1024.5 1024.7 0.0
22/12:30pm 16.2 12.9 2.2 39 6.3 NE 9 15 5 8 1025.1 1025.3 0.0
22/12:00pm 15.1 11.8 2.3 42 5.7 ENE 9 13 5 7 1025.7 1025.9 0.0
22/11:30am 15.2 11.1 2.4 42 5.8 ENE 13 17 7 9 1026.0 1026.2 0.0
22/11:00am 14.1 10.4 2.4 45 5.2 ENE 11 15 6 8 1026.8 1026.9 0.0
22/10:30am 13.6 10.0 2.8 48 4.8 ENE 11 15 6 8 1027.1 1027.2 0.0
22/10:00am 11.3 9.9 3.3 58 3.5 CALM 0 0 0 0 1027.6 1027.7 0.0
22/09:30am 9.1 7.5 2.7 64 2.7 CALM 0 0 0 0 1027.1 1027.2 0.0
22/09:00am 6.7 5.0 2.0 72 1.9 CALM 0 0 0 0 1027.2 1027.3 0.0
22/08:30am 3.7 1.8 0.6 80 1.2 CALM 0 0 0 0 1027.0 1027.1 0.0
22/08:00am 2.5 0.5 -0.4 81 1.1 CALM 0 0 0 0 1026.7 1026.8 0.0
22/07:30am 1.9 -0.6 -1.0 81 1.0 WSW 2 6 1 3 1026.4 1026.6 0.0
22/07:00am 2.0 -0.1 -1.1 80 1.1 CALM 0 0 0 0 1026.3 1026.5 0.0
22/06:30am 1.2 -1.0 -1.9 80 1.1 CALM 0 0 0 0 1025.7 1025.9 0.0
22/06:00am 1.4 -0.8 -1.8 79 1.1 CALM 0 0 0 0 1025.7 1025.9 0.0
22/05:30am 1.6 -0.6 -1.8 78 1.2 CALM 0 0 0 0 1025.8 1026.0 0.0
22/05:00am 1.8 -0.5 -2.1 75 1.4 CALM 0 0 0 0 1025.5 1025.7 0.0
22/04:30am 2.3 -0.7 -1.8 74 1.5 SSW 4 6 2 3 1025.7 1025.9 0.0
22/04:00am 2.8 -0.7 -1.7 72 1.6 WSW 7 7 4 4 1025.8 1026.0 0.0
22/03:30am 4.3 0.9 -0.3 72 1.7 SW 7 9 4 5 1025.7 1025.9 0.0
22/03:00am 5.3 2.1 0.5 71 1.9 SSW 7 9 4 5 1026.1 1026.3 0.0
22/02:30am 6.1 2.5 0.6 68 2.2 S 9 13 5 7 1026.0 1026.2 0.0
22/02:00am 6.4 2.8 0.9 68 2.2 SSW 9 13 5 7 1026.0 1026.2 0.0
22/01:30am 6.1 2.8 0.4 67 2.2 SSW 7 9 4 5 1026.1 1026.3 0.0
22/01:00am 6.6 3.0 0.5 65 2.4 SW 9 11 5 6 1026.3 1026.5 0.0
22/12:30am 6.3 3.0 0.2 65 2.4 SSW 7 9 4 5 1026.1 1026.3 0.0
22/12:00am 6.1 2.9 -0.2 64 2.4 SW 6 7 3 4 1026.1 1026.3 0.0
 
Date/Time
EST
Temp
°C
App
Temp
°C
Dew
Point
°C
Rel
Hum
%
Delta-T
°C
Wind Press
QNH
hPa
Press
MSL
hPa
Rain since
9am
mm
Dir  Spd
km/h
Gust
km/h
Spd
kts
Gust
kts
21/11:30pm 6.5 3.2 -0.2 62 2.6 S 7 9 4 5 1026.2 1026.4 0.0
21/11:00pm 7.1 3.4 -0.1 60 2.8 S 9 11 5 6 1026.3 1026.5 0.0
21/10:30pm 7.6 3.8 -0.4 57 3.1 SSE 9 13 5 7 1026.5 1026.7 0.0
21/10:00pm 9.6 5.7 1.0 55 3.5 SE 11 17 6 9 1026.7 1026.8 0.0
21/09:30pm 9.0 5.2 -0.6 51 3.8 SSE 9 11 5 6 1027.0 1027.1 0.0
21/09:00pm 9.8 5.2 -0.7 48 4.2 S 13 15 7 8 1027.0 1027.1 0.0
21/08:30pm 13.1 8.3 0.5 42 5.3 SE 15 19 8 10 1026.8 1026.9 0.0
21/08:00pm 13.6 8.3 -0.4 38 5.8 SE 17 20 9 11 1026.7 1026.8 0.0
21/07:30pm 14.1 8.9 0.0 38 6.0 SE 17 20 9 11 1026.3 1026.5 0.0
21/07:00pm 14.4 9.6 -0.1 37 6.1 SE 15 20 8 11 1026.1 1026.3 0.0
21/06:30pm 15.1 10.3 0.5 37 6.3 SE 15 19 8 10 1026.1 1026.3 0.0
21/06:00pm 15.1 10.8 1.3 39 6.0 SE 13 13 7 7 1026.0 1026.2 0.0
21/05:30pm 16.7 12.0 1.2 35 6.9 SE 15 19 8 10 1026.0 1026.2 0.0

Other Formats:

Comma delimited format used in spreadsheet applications
http://www.bom.gov.au/fwo/IDN60801/IDN60801.94686.axf

JavaScript Object Notation format (JSON) in row-major order
http://www.bom.gov.au/fwo/IDN60801/IDN60801.94686.json